createdAt,value
2018-11-10T00:02:15.344Z,32.07
2018-11-10T00:04:43.662Z,31.43
2018-11-10T00:07:11.978Z,34.03
2018-11-10T00:09:40.828Z,32.67
2018-11-10T00:12:09.178Z,32.53
2018-11-10T00:14:37.579Z,30.80
2018-11-10T00:17:06.558Z,31.53
2018-11-10T00:19:35.054Z,34.27
2018-11-10T00:22:03.530Z,32.23
2018-11-10T00:24:31.897Z,31.77
2018-11-10T00:27:00.299Z,41.73
2018-11-10T00:29:28.723Z,36.77
2018-11-10T00:31:57.193Z,33.00
2018-11-10T00:34:25.843Z,33.53
2018-11-10T00:36:54.471Z,35.33
2018-11-10T00:39:22.893Z,40.07
2018-11-10T00:41:51.371Z,34.03
2018-11-10T00:44:20.221Z,31.43
2018-11-10T00:46:48.763Z,32.33
2018-11-10T00:49:17.332Z,32.07
2018-11-10T00:51:45.810Z,30.93
2018-11-10T00:54:14.125Z,29.97
2018-11-10T00:56:42.670Z,31.67
2018-11-10T00:59:10.970Z,30.80
2018-11-10T01:01:39.352Z,31.23
2018-11-10T01:04:07.607Z,29.40
2018-11-10T01:06:35.952Z,31.10
2018-11-10T01:09:05.208Z,31.60
2018-11-10T01:11:33.685Z,32.70
2018-11-10T01:14:02.061Z,31.27
2018-11-10T01:16:30.384Z,34.23
2018-11-10T01:18:58.759Z,37.57
2018-11-10T01:21:27.106Z,31.70
2018-11-10T01:23:55.577Z,31.13
2018-11-10T01:26:23.805Z,30.20
2018-11-10T01:28:52.146Z,29.77
2018-11-10T01:31:20.474Z,30.23
2018-11-10T01:33:48.736Z,31.20
2018-11-10T01:36:17.038Z,30.53
2018-11-10T01:38:45.420Z,29.97
2018-11-10T01:41:13.718Z,31.87
2018-11-10T01:43:42.058Z,32.07
2018-11-10T01:46:10.361Z,31.43
2018-11-10T01:48:38.628Z,31.43
2018-11-10T01:51:06.929Z,30.43
2018-11-10T01:53:35.262Z,37.57
2018-11-10T01:56:03.644Z,46.43
2018-11-10T01:58:32.282Z,32.47
2018-11-10T02:01:00.548Z,31.43
2018-11-10T02:03:28.870Z,32.23
2018-11-10T02:05:57.236Z,30.33
2018-11-10T02:08:25.640Z,31.17
2018-11-10T02:10:53.934Z,30.30
2018-11-10T02:13:22.263Z,29.30
2018-11-10T02:15:50.603Z,30.63
2018-11-10T02:18:18.848Z,29.30
2018-11-10T02:20:47.169Z,30.80
2018-11-10T02:23:15.605Z,29.90
2018-11-10T02:25:43.829Z,28.40
2018-11-10T02:28:12.174Z,31.30
2018-11-10T02:30:40.512Z,30.20
2018-11-10T02:33:08.932Z,28.93
2018-11-10T02:35:37.314Z,28.47
2018-11-10T02:38:05.759Z,27.33
2018-11-10T02:40:33.968Z,29.43
2018-11-10T02:43:02.390Z,29.63
2018-11-10T02:45:30.776Z,29.53
2018-11-10T02:47:59.233Z,29.27
2018-11-10T02:50:27.587Z,30.07
2018-11-10T02:52:55.884Z,30.50
2018-11-10T02:55:24.190Z,28.40
2018-11-10T02:57:52.574Z,29.33
2018-11-10T03:00:21.358Z,29.13
2018-11-10T03:02:49.690Z,29.37
2018-11-10T03:05:17.957Z,29.43
2018-11-10T03:07:46.289Z,29.90
2018-11-10T03:10:14.773Z,28.93
2018-11-10T03:12:43.106Z,28.27
2018-11-10T03:15:12.427Z,27.50
2018-11-10T03:17:40.705Z,28.10
2018-11-10T03:20:10.857Z,29.83
2018-11-10T03:22:39.318Z,29.43
2018-11-10T03:25:07.621Z,28.63
2018-11-10T03:27:35.979Z,28.20
2018-11-10T03:30:04.357Z,29.30
2018-11-10T03:32:32.700Z,29.20
2018-11-10T03:35:02.522Z,27.90
2018-11-10T03:37:30.832Z,28.30
2018-11-10T03:39:59.132Z,28.70
2018-11-10T03:42:27.452Z,30.60
2018-11-10T03:44:55.838Z,27.17
2018-11-10T03:47:24.087Z,29.30
2018-11-10T03:49:52.356Z,27.33
2018-11-10T03:52:20.727Z,28.30
2018-11-10T03:54:49.035Z,27.37
2018-11-10T03:57:17.290Z,27.50
2018-11-10T03:59:45.628Z,28.43
2018-11-10T04:02:13.896Z,27.87
2018-11-10T04:04:42.250Z,27.43
2018-11-10T04:07:10.484Z,26.60
2018-11-10T04:09:38.801Z,29.30
2018-11-10T04:12:07.117Z,27.33
2018-11-10T04:14:35.390Z,28.50
2018-11-10T04:17:03.673Z,27.33
2018-11-10T04:19:32.083Z,27.40
2018-11-10T04:22:00.460Z,27.07
2018-11-10T04:24:28.899Z,28.07
2018-11-10T04:26:57.145Z,25.63
2018-11-10T04:29:25.471Z,26.37
2018-11-10T04:31:53.815Z,26.23
2018-11-10T04:34:22.112Z,26.00
2018-11-10T04:36:50.429Z,26.17
2018-11-10T04:39:18.964Z,26.27
2018-11-10T04:41:47.254Z,24.60
2018-11-10T04:44:15.646Z,24.30
2018-11-10T04:46:44.001Z,25.97
2018-11-10T04:49:12.415Z,38.90
2018-11-10T04:51:40.830Z,41.70
2018-11-10T04:54:09.077Z,28.13
2018-11-10T04:56:37.397Z,24.37
2018-11-10T04:59:05.676Z,26.53
2018-11-10T05:01:34.007Z,24.80
2018-11-10T05:04:03.290Z,25.17
2018-11-10T05:06:31.666Z,24.63
2018-11-10T05:09:00.106Z,26.00
2018-11-10T05:11:28.410Z,24.17
2018-11-10T05:13:57.127Z,24.33
2018-11-10T05:16:25.414Z,25.07
2018-11-10T05:18:53.696Z,25.27
2018-11-10T05:21:21.968Z,26.37
2018-11-10T05:23:50.272Z,25.90
2018-11-10T05:26:18.535Z,26.27
2018-11-10T05:28:46.905Z,24.77
2018-11-10T05:31:15.437Z,26.07
2018-11-10T05:33:43.928Z,23.90
2018-11-10T05:36:12.483Z,23.77
2018-11-10T05:38:41.041Z,25.60
2018-11-10T05:41:09.310Z,24.57
2018-11-10T05:43:37.934Z,24.37
2018-11-10T05:46:06.325Z,24.20
2018-11-10T05:48:34.639Z,24.67
2018-11-10T05:51:02.972Z,23.80
2018-11-10T05:53:31.301Z,23.53
2018-11-10T05:55:59.570Z,24.73
2018-11-10T05:58:27.950Z,22.33
2018-11-10T06:00:56.613Z,25.03
2018-11-10T06:03:25.108Z,42.60
2018-11-10T06:05:53.780Z,32.37
2018-11-10T06:08:22.107Z,25.33
2018-11-10T06:10:50.639Z,23.20
2018-11-10T06:13:19.122Z,23.43
2018-11-10T06:15:47.535Z,22.50
2018-11-10T06:18:15.858Z,23.77
2018-11-10T06:20:44.115Z,22.87
2018-11-10T06:23:12.361Z,23.63
2018-11-10T06:25:40.812Z,23.23
2018-11-10T06:28:09.106Z,23.20
2018-11-10T06:30:37.632Z,23.63
2018-11-10T06:33:05.930Z,23.20
2018-11-10T06:35:34.236Z,23.00
2018-11-10T06:38:02.601Z,22.93
2018-11-10T06:40:33.750Z,22.00
2018-11-10T06:43:02.227Z,24.40
2018-11-10T06:45:30.722Z,21.47
2018-11-10T06:47:59.628Z,22.00
2018-11-10T06:50:28.040Z,22.37
2018-11-10T06:52:56.554Z,40.93
2018-11-10T06:55:24.870Z,43.00
2018-11-10T06:57:53.322Z,27.17
2018-11-10T07:00:21.746Z,22.83
2018-11-10T07:02:50.182Z,21.87
2018-11-10T07:05:18.564Z,21.97
2018-11-10T07:07:46.802Z,22.13
2018-11-10T07:10:15.185Z,22.80
2018-11-10T07:12:43.560Z,22.87
2018-11-10T07:15:13.780Z,21.80
2018-11-10T07:17:42.246Z,39.67
2018-11-10T07:20:10.649Z,37.57
2018-11-10T07:22:38.951Z,23.87
2018-11-10T07:25:07.863Z,21.20
2018-11-10T07:27:36.219Z,22.97
2018-11-10T07:30:06.146Z,22.63
2018-11-10T07:32:34.631Z,22.40
2018-11-10T07:35:03.714Z,22.90
2018-11-10T07:37:32.250Z,24.23
2018-11-10T07:40:01.699Z,40.47
2018-11-10T07:42:30.147Z,27.30
2018-11-10T07:44:59.421Z,24.63
2018-11-10T07:47:34.431Z,23.87
2018-11-10T07:50:04.051Z,23.63
2018-11-10T07:52:32.487Z,22.87
2018-11-10T07:55:01.030Z,24.97
2018-11-10T07:57:29.719Z,25.03
2018-11-10T07:59:59.500Z,24.37
2018-11-10T08:02:27.866Z,24.73
2018-11-10T08:04:56.218Z,22.97
2018-11-10T08:07:24.624Z,24.57
2018-11-10T08:09:53.090Z,24.97
2018-11-10T08:12:21.877Z,25.57
2018-11-10T08:14:50.386Z,24.83
2018-11-10T08:17:18.805Z,25.53
2018-11-10T08:19:47.280Z,43.90
2018-11-10T08:22:15.697Z,42.40
2018-11-10T08:24:44.293Z,46.13
2018-11-10T08:27:12.865Z,30.07
2018-11-10T08:29:41.376Z,28.23
2018-11-10T08:32:09.876Z,26.63
2018-11-10T08:34:38.311Z,27.57
2018-11-10T08:37:06.731Z,27.67
2018-11-10T08:39:35.097Z,26.60
2018-11-10T08:42:03.490Z,26.30
2018-11-10T08:44:33.536Z,26.00
2018-11-10T08:47:02.731Z,26.00
2018-11-10T08:49:31.090Z,26.70
2018-11-10T08:51:59.743Z,27.03
2018-11-10T08:54:28.119Z,25.53
2018-11-10T08:56:56.636Z,25.83
2018-11-10T08:59:24.920Z,28.30
2018-11-10T09:01:53.287Z,26.70
2018-11-10T09:04:22.323Z,28.70
2018-11-10T09:06:50.671Z,29.50
2018-11-10T09:09:19.193Z,27.77
2018-11-10T09:11:48.248Z,28.60
2018-11-10T09:14:16.744Z,53.20
2018-11-10T09:16:45.125Z,36.47
2018-11-10T09:19:13.617Z,29.37
2018-11-10T09:21:43.984Z,28.97
2018-11-10T09:24:12.994Z,29.07
2018-11-10T09:26:41.397Z,29.60
2018-11-10T09:29:10.167Z,29.10
2018-11-10T09:31:39.053Z,31.70
2018-11-10T09:34:08.078Z,29.10
2018-11-10T09:36:36.604Z,29.33
2018-11-10T09:39:06.722Z,29.57
2018-11-10T09:41:35.154Z,29.13
2018-11-10T09:44:03.638Z,31.53
2018-11-10T09:46:31.990Z,29.80
2018-11-10T09:49:01.213Z,30.07
2018-11-10T09:51:29.728Z,30.83
2018-11-10T09:53:58.436Z,29.33
2018-11-10T09:56:26.820Z,67.10
2018-11-10T09:58:55.251Z,41.30
2018-11-10T10:01:26.500Z,32.77
2018-11-10T10:03:55.270Z,31.07
2018-11-10T10:06:23.655Z,30.67
2018-11-10T10:08:52.407Z,30.03
2018-11-10T10:11:20.719Z,31.17
2018-11-10T10:13:49.081Z,29.13
2018-11-10T10:16:17.491Z,43.00
2018-11-10T10:18:45.844Z,38.47
2018-11-10T10:21:14.193Z,31.53
2018-11-10T10:23:42.699Z,31.23
2018-11-10T10:26:10.991Z,29.33
2018-11-10T10:28:39.575Z,28.97
2018-11-10T10:31:07.959Z,30.07
2018-11-10T10:33:36.631Z,29.57
2018-11-10T10:36:05.375Z,30.27
2018-11-10T10:38:33.937Z,28.80
2018-11-10T10:41:03.099Z,30.00
2018-11-10T10:43:31.640Z,28.87
2018-11-10T10:45:59.980Z,30.03
2018-11-10T10:48:28.556Z,29.47
2018-11-10T10:50:56.937Z,30.40
2018-11-10T10:53:25.411Z,31.00
2018-11-10T10:55:53.948Z,28.70
2018-11-10T10:58:22.384Z,29.10
2018-11-10T11:00:55.968Z,29.70
2018-11-10T11:03:29.790Z,36.93
2018-11-10T11:06:00.413Z,35.13
2018-11-10T11:08:29.145Z,30.50
2018-11-10T11:10:57.883Z,27.30
2018-11-10T11:13:26.402Z,27.30
2018-11-10T11:15:54.811Z,29.33
2018-11-10T11:18:23.394Z,28.27
2018-11-10T11:20:51.865Z,27.57
2018-11-10T11:23:20.552Z,29.13
2018-11-10T11:25:48.859Z,28.20
2018-11-10T11:28:17.254Z,27.83
2018-11-10T11:30:45.665Z,28.07
2018-11-10T11:33:14.206Z,27.30
2018-11-10T11:35:42.650Z,26.63
2018-11-10T11:38:10.972Z,26.60
2018-11-10T11:40:39.309Z,25.93
2018-11-10T11:43:08.187Z,27.83
2018-11-10T11:45:36.838Z,31.93
2018-11-10T11:48:05.648Z,29.13
2018-11-10T11:50:33.943Z,28.03
2018-11-10T11:53:02.431Z,27.07
2018-11-10T11:55:30.939Z,26.47
2018-11-10T11:57:59.527Z,25.43
2018-11-10T12:00:28.646Z,28.40
2018-11-10T12:02:57.118Z,25.87
2018-11-10T12:05:25.596Z,27.63
2018-11-10T12:07:54.015Z,26.40
2018-11-10T12:10:22.394Z,29.00
2018-11-10T12:12:50.801Z,29.40
2018-11-10T12:15:19.118Z,26.77
2018-11-10T12:17:47.491Z,26.20
2018-11-10T12:20:16.379Z,26.13
2018-11-10T12:22:44.697Z,27.23
2018-11-10T12:25:14.832Z,25.13
2018-11-10T12:27:43.768Z,24.80
2018-11-10T12:30:12.346Z,24.03
2018-11-10T12:32:41.284Z,23.67
2018-11-10T12:35:11.390Z,23.80
2018-11-10T12:37:39.940Z,24.07
2018-11-10T12:40:09.894Z,23.90
2018-11-10T12:42:38.799Z,24.40
2018-11-10T12:45:07.965Z,24.27
2018-11-10T12:47:36.301Z,24.37
2018-11-10T12:50:05.096Z,24.53
2018-11-10T12:52:33.650Z,24.57
2018-11-10T12:55:02.067Z,22.87
2018-11-10T12:57:30.387Z,23.43
2018-11-10T12:59:58.681Z,32.73
2018-11-10T13:02:27.225Z,29.27
2018-11-10T13:04:55.581Z,23.93
2018-11-10T13:07:23.906Z,24.50
2018-11-10T13:09:52.355Z,25.20
2018-11-10T13:12:20.750Z,25.20
2018-11-10T13:14:49.457Z,30.50
2018-11-10T13:17:17.803Z,28.90
2018-11-10T13:19:46.181Z,29.17
2018-11-10T13:22:14.578Z,28.77
2018-11-10T13:24:43.130Z,29.13
2018-11-10T13:27:11.731Z,24.97
2018-11-10T13:29:40.168Z,48.43
2018-11-10T13:32:08.535Z,30.03
2018-11-10T13:34:37.009Z,24.87
2018-11-10T13:37:05.606Z,23.80
2018-11-10T13:39:34.009Z,23.87
2018-11-10T13:42:02.506Z,23.23
2018-11-10T13:44:30.977Z,23.40
2018-11-10T13:46:59.237Z,23.13
2018-11-10T13:49:27.640Z,41.33
2018-11-10T13:51:56.154Z,39.37
2018-11-10T13:54:24.347Z,30.47
2018-11-10T13:56:52.739Z,25.13
2018-11-10T13:59:21.169Z,23.73
2018-11-10T14:01:49.536Z,24.57
2018-11-10T14:04:18.850Z,23.70
2018-11-10T14:06:47.184Z,23.23
2018-11-10T14:09:15.521Z,23.63
2018-11-10T14:11:43.869Z,23.20
2018-11-10T14:14:12.350Z,24.17
2018-11-10T14:16:40.885Z,24.10
2018-11-10T14:19:09.263Z,24.47
2018-11-10T14:21:37.746Z,23.00
2018-11-10T14:24:06.528Z,23.00
2018-11-10T14:26:35.218Z,23.80
2018-11-10T14:29:03.975Z,24.60
2018-11-10T14:31:32.417Z,23.00
2018-11-10T14:34:01.048Z,25.47
2018-11-10T14:36:29.825Z,24.50
2018-11-10T14:38:58.273Z,24.83
2018-11-10T14:41:26.658Z,23.00
2018-11-10T14:43:54.907Z,23.37
2018-11-10T14:46:23.244Z,24.00
2018-11-10T14:48:51.627Z,23.87
2018-11-10T14:51:19.966Z,23.13
2018-11-10T14:53:48.244Z,23.60
2018-11-10T14:56:16.887Z,23.03
2018-11-10T14:58:45.387Z,23.37
2018-11-10T15:01:13.736Z,22.23
2018-11-10T15:03:42.060Z,22.20
2018-11-10T15:06:10.581Z,21.67
2018-11-10T15:08:39.045Z,21.47
2018-11-10T15:11:08.576Z,21.80
2018-11-10T15:13:37.076Z,22.43
2018-11-10T15:16:10.156Z,22.07
2018-11-10T15:18:38.747Z,21.77
2018-11-10T15:21:07.270Z,22.67
2018-11-10T15:23:35.692Z,22.90
2018-11-10T15:26:04.070Z,21.87
2018-11-10T15:28:33.381Z,22.00
2018-11-10T15:31:01.825Z,21.93
2018-11-10T15:33:31.464Z,23.27
2018-11-10T15:36:00.230Z,22.20
2018-11-10T15:38:29.167Z,23.23
2018-11-10T15:40:57.515Z,23.87
2018-11-10T15:43:25.937Z,22.27
2018-11-10T15:45:54.351Z,23.43
2018-11-10T15:48:22.831Z,23.10
2018-11-10T15:50:51.261Z,20.97
2018-11-10T15:53:19.828Z,21.33
2018-11-10T15:55:48.309Z,22.43
2018-11-10T15:58:16.750Z,22.53
2018-11-10T16:00:45.094Z,22.83
2018-11-10T16:03:13.751Z,25.67
2018-11-10T16:05:42.265Z,23.03
2018-11-10T16:08:10.842Z,28.10
2018-11-10T16:10:39.322Z,32.43
2018-11-10T16:13:07.695Z,29.43
2018-11-10T16:15:36.219Z,30.80
2018-11-10T16:18:04.792Z,27.53
2018-11-10T16:20:33.327Z,29.73
2018-11-10T16:23:01.686Z,32.60
2018-11-10T16:25:30.374Z,38.03
2018-11-10T16:28:01.146Z,29.27
2018-11-10T16:30:29.786Z,27.33
2018-11-10T16:32:58.248Z,27.13
2018-11-10T16:35:26.646Z,27.23
2018-11-10T16:37:55.173Z,26.43
2018-11-10T16:40:23.643Z,27.20
2018-11-10T16:42:52.199Z,26.40
2018-11-10T16:45:21.215Z,25.03
2018-11-10T16:47:49.639Z,23.77
2018-11-10T16:50:18.086Z,23.97
2018-11-10T16:52:48.203Z,23.50
2018-11-10T16:55:16.536Z,22.57
2018-11-10T16:57:44.889Z,23.90
2018-11-10T17:00:15.082Z,23.63
2018-11-10T17:02:43.589Z,24.90
2018-11-10T17:05:12.316Z,23.53
2018-11-10T17:07:41.514Z,24.03
2018-11-10T17:10:12.733Z,24.07
2018-11-10T17:12:41.735Z,24.70
2018-11-10T17:15:10.603Z,23.93
2018-11-10T17:17:39.361Z,25.13
2018-11-10T17:20:10.343Z,27.07
2018-11-10T17:22:39.482Z,24.40
2018-11-10T17:25:08.721Z,31.47
2018-11-10T17:27:37.123Z,33.43
2018-11-10T17:30:08.407Z,30.30
2018-11-10T17:32:37.880Z,27.00
2018-11-10T17:35:06.951Z,32.20
2018-11-10T17:37:36.081Z,36.60
2018-11-10T17:40:04.866Z,30.83
2018-11-10T17:42:33.350Z,28.87
2018-11-10T17:45:01.682Z,25.80
2018-11-10T17:47:30.017Z,25.47
2018-11-10T17:49:59.535Z,25.37
2018-11-10T17:52:28.213Z,23.93
2018-11-10T17:54:56.998Z,25.20
2018-11-10T17:57:25.360Z,24.87
2018-11-10T17:59:53.800Z,30.73
2018-11-10T18:02:22.288Z,33.73
2018-11-10T18:04:50.993Z,27.57
2018-11-10T18:07:19.475Z,26.37
2018-11-10T18:09:47.819Z,27.17
2018-11-10T18:12:16.211Z,30.63
2018-11-10T18:14:44.580Z,32.43
2018-11-10T18:17:12.931Z,27.47
2018-11-10T18:19:41.615Z,26.53
2018-11-10T18:22:10.271Z,25.77
2018-11-10T18:24:38.645Z,25.53
2018-11-10T18:27:07.126Z,25.00
2018-11-10T18:29:35.518Z,25.37
2018-11-10T18:32:04.171Z,27.40
2018-11-10T18:34:32.561Z,28.87
2018-11-10T18:37:00.948Z,27.70
2018-11-10T18:39:29.440Z,26.97
2018-11-10T18:41:57.955Z,26.63
2018-11-10T18:44:26.269Z,26.47
2018-11-10T18:46:55.043Z,27.20
2018-11-10T18:49:23.438Z,28.47
2018-11-10T18:51:52.055Z,34.60
2018-11-10T18:54:20.590Z,44.20
2018-11-10T18:56:49.160Z,41.03
2018-11-10T18:59:17.520Z,43.43
2018-11-10T19:01:45.993Z,39.57
2018-11-10T19:04:15.234Z,32.73
2018-11-10T19:06:43.823Z,28.97
2018-11-10T19:09:13.363Z,28.07
2018-11-10T19:11:41.820Z,26.60
2018-11-10T19:14:10.631Z,26.03
2018-11-10T19:16:39.033Z,27.67
2018-11-10T19:19:08.375Z,29.60
2018-11-10T19:21:36.966Z,31.20
2018-11-10T19:24:05.924Z,30.40
2018-11-10T19:26:34.274Z,28.60
2018-11-10T19:29:02.613Z,30.33
2018-11-10T19:31:30.948Z,35.17
2018-11-10T19:33:59.365Z,32.63
2018-11-10T19:36:27.834Z,30.10
2018-11-10T19:38:56.194Z,28.07
2018-11-10T19:41:24.530Z,28.07
2018-11-10T19:43:52.992Z,25.60
2018-11-10T19:46:21.471Z,26.93
2018-11-10T19:48:49.842Z,26.93
2018-11-10T19:51:18.390Z,26.77
2018-11-10T19:53:46.625Z,26.70
2018-11-10T19:56:15.002Z,25.73
2018-11-10T19:58:43.399Z,32.13
2018-11-10T20:01:11.828Z,40.83
2018-11-10T20:03:45.714Z,32.93
2018-11-10T20:06:14.228Z,29.60
2018-11-10T20:08:42.624Z,29.03
2018-11-10T20:11:11.188Z,29.43
2018-11-10T20:13:40.646Z,28.77
2018-11-10T20:16:15.980Z,27.57
2018-11-10T20:18:44.958Z,27.97
2018-11-10T20:21:13.332Z,28.63
2018-11-10T20:23:41.804Z,28.40
2018-11-10T20:26:10.343Z,28.13
2018-11-10T20:28:38.943Z,27.83
2018-11-10T20:31:07.759Z,28.30
2018-11-10T20:33:36.277Z,29.67
2018-11-10T20:36:04.875Z,29.93
2018-11-10T20:38:33.378Z,29.63
2018-11-10T20:41:03.233Z,30.00
2018-11-10T20:43:31.804Z,29.07
2018-11-10T20:46:00.966Z,29.77
2018-11-10T20:48:29.449Z,29.63
2018-11-10T20:50:58.223Z,29.40
2018-11-10T20:53:26.755Z,35.53
2018-11-10T20:55:55.072Z,30.40
2018-11-10T20:58:23.714Z,29.67
2018-11-10T21:00:52.209Z,28.70
2018-11-10T21:03:20.826Z,30.40
2018-11-10T21:05:49.239Z,29.33
2018-11-10T21:08:17.666Z,30.27
2018-11-10T21:10:46.182Z,29.77
2018-11-10T21:13:14.849Z,28.67
2018-11-10T21:15:44.737Z,30.97
2018-11-10T21:18:13.252Z,29.93
2018-11-10T21:20:43.077Z,30.83
2018-11-10T21:23:11.841Z,31.23
2018-11-10T21:25:40.275Z,32.10
2018-11-10T21:28:08.703Z,30.37
2018-11-10T21:30:37.169Z,41.07
2018-11-10T21:33:05.647Z,66.90
2018-11-10T21:35:34.255Z,59.43
2018-11-10T21:38:02.909Z,50.53
2018-11-10T21:40:31.311Z,39.73
2018-11-10T21:42:59.776Z,35.90
2018-11-10T21:45:28.177Z,38.23
2018-11-10T21:47:56.516Z,33.53
2018-11-10T21:50:24.836Z,30.93
2018-11-10T21:52:53.134Z,31.90
2018-11-10T21:55:21.447Z,31.70
2018-11-10T21:57:50.191Z,31.77
2018-11-10T22:00:20.825Z,32.00
2018-11-10T22:02:49.461Z,31.00
2018-11-10T22:05:18.265Z,30.53
2018-11-10T22:07:46.639Z,30.50
2018-11-10T22:10:16.235Z,31.83
2018-11-10T22:12:45.315Z,31.70
2018-11-10T22:15:16.075Z,33.03
2018-11-10T22:17:45.286Z,34.43
2018-11-10T22:20:14.852Z,34.07
2018-11-10T22:22:43.159Z,32.70
2018-11-10T22:25:12.317Z,32.30
2018-11-10T22:27:42.168Z,31.47
2018-11-10T22:30:12.568Z,31.00
2018-11-10T22:32:41.448Z,32.10
2018-11-10T22:35:10.414Z,32.50
2018-11-10T22:37:38.870Z,32.17
2018-11-10T22:40:09.250Z,33.37
2018-11-10T22:42:38.503Z,30.53
2018-11-10T22:45:08.156Z,38.10
2018-11-10T22:47:36.550Z,36.70
2018-11-10T22:50:06.483Z,33.10
2018-11-10T22:52:34.926Z,31.10
2018-11-10T22:55:03.588Z,31.37
2018-11-10T22:57:31.886Z,30.93
2018-11-10T23:00:00.389Z,31.37
2018-11-10T23:02:28.903Z,30.10
2018-11-10T23:04:57.204Z,32.20
2018-11-10T23:07:25.656Z,35.10
2018-11-10T23:09:53.932Z,51.00
2018-11-10T23:12:22.314Z,45.70
2018-11-10T23:14:50.694Z,38.43
2018-11-10T23:17:19.277Z,36.70
2018-11-10T23:19:47.657Z,32.07
2018-11-10T23:22:22.321Z,29.90
2018-11-10T23:24:50.690Z,33.83
2018-11-10T23:27:19.067Z,34.30
2018-11-10T23:29:47.881Z,33.67
2018-11-10T23:32:16.208Z,32.23
2018-11-10T23:34:45.495Z,30.47
2018-11-10T23:37:13.919Z,31.97
2018-11-10T23:39:42.559Z,31.30
2018-11-10T23:42:11.172Z,30.97
2018-11-10T23:44:39.538Z,31.43
2018-11-10T23:47:07.826Z,31.93
2018-11-10T23:49:36.319Z,30.87
2018-11-10T23:52:04.698Z,32.00
2018-11-10T23:54:33.229Z,30.77
2018-11-10T23:57:01.644Z,31.70
2018-11-10T23:59:30.003Z,31.70
